< Typhoon 196324 1964 Season Typhoon 196402 >
Typhoon 196401 (TESS)
General InformationTrack Information on Google Maps || Disaster Info.ResourceGoogle EarthGE AnimationAtom FeedGeoJSON
Detalied Best Track (Time Zone = UTC)
Year Month Day Hour Lat. Long. Pressure (hPa) Wind (kt) Class Image Chart
1964 5 12 00 10.3 133.5 1008 0 2 -- Chart
1964 5 12 06 10.5 133.4 1006 0 2 -- Chart
1964 5 12 12 10.9 133.6 1008 0 2 -- Chart
1964 5 12 18 11.3 133.9 1008 0 2 -- Chart
1964 5 13 00 11.5 134.2 1006 0 2 -- Chart
1964 5 13 06 11.7 133.8 1006 0 2 -- Chart
1964 5 13 12 11.8 133.4 1006 0 2 -- Chart
1964 5 13 18 12.0 133.0 1006 0 2 -- Chart
1964 5 14 00 12.1 132.7 1006 0 2 -- Chart
1964 5 14 06 12.2 132.2 1004 0 2 -- Chart
1964 5 14 12 12.5 132.0 1004 0 2 -- Chart
1964 5 14 18 12.7 131.9 1002 0 2 -- Chart
1964 5 15 00 12.9 131.9 1000 0 2 -- Chart
1964 5 15 06 13.0 131.4 1000 0 9 -- Chart
1964 5 15 12 12.6 130.9 1000 0 9 -- Chart
1964 5 15 18 12.2 130.5 1000 0 9 -- Chart
1964 5 16 00 11.9 130.1 1000 0 9 -- Chart
1964 5 16 06 11.8 129.9 1000 0 9 -- Chart
1964 5 16 12 11.7 129.7 1002 0 9 -- Chart
1964 5 16 18 11.7 129.4 1002 0 9 -- Chart
1964 5 17 00 11.5 129.4 1002 0 2 -- Chart
1964 5 17 06 11.7 130.3 1000 0 2 -- Chart
1964 5 17 12 12.0 131.0 999 0 2 -- Chart
1964 5 17 18 12.3 131.7 998 0 2 -- Chart
1964 5 18 00 12.6 132.5 996 0 9 -- Chart
1964 5 18 06 12.7 133.2 996 0 9 -- Chart
1964 5 18 12 12.7 134.0 996 0 9 -- Chart
1964 5 18 18 12.6 134.6 996 0 9 -- Chart
1964 5 19 00 12.5 135.5 996 0 9 -- Chart
1964 5 19 06 12.7 137.0 996 0 9 -- Chart
1964 5 19 12 13.2 138.4 990 0 9 -- Chart
1964 5 19 18 14.1 140.1 990 0 9 -- Chart
1964 5 20 00 15.5 142.1 980 0 9 -- Chart
1964 5 20 06 16.5 143.6 980 0 9 -- Chart
1964 5 20 12 17.2 145.5 980 0 9 -- Chart
1964 5 20 18 18.7 147.5 980 0 9 -- Chart
1964 5 21 00 20.2 148.9 975 0 9 -- Chart
1964 5 21 06 22.1 150.1 970 0 9 -- Chart
1964 5 21 12 23.6 151.6 970 0 9 -- Chart
1964 5 21 18 25.4 152.6 970 0 9 -- Chart
1964 5 22 00 26.8 153.2 960 0 9 -- Chart
1964 5 22 06 28.3 154.3 970 0 9 -- Chart
1964 5 22 12 29.5 155.5 970 0 9 -- Chart
1964 5 22 18 31.0 157.0 975 0 9 -- Chart
1964 5 23 00 32.0 157.7 980 0 9 -- Chart
1964 5 23 06 32.8 158.8 980 0 9 -- Chart
1964 5 23 12 33.5 159.9 980 0 9 -- Chart
1964 5 23 18 34.1 160.9 985 0 9 -- Chart
1964 5 24 00 34.8 162.2 990 0 6 -- Chart
1964 5 24 06 35.3 163.5 992 0 6 -- Chart
1964 5 24 12 35.6 164.8 996 0 6 -- Chart
1964 5 24 18 36.0 166.7 1000 0 6 -- Chart
1964 5 25 00 36.0 168.2 1000 0 6 -- Chart
1964 5 25 06 36.0 169.2 1002 0 6 -- Chart
1964 5 25 12 36.0 170.5 1004 0 6 -- Chart
1964 5 25 18 36.2 171.4 1008 0 6 -- Chart
1964 5 26 00 36.5 172.7 1008 0 6 -- Chart
1964 5 26 06 37.0 173.5 1010 0 6 -- Chart
1964 5 26 12 37.0 173.9 1012 0 6 -- Chart
1964 5 26 18 37.0 174.0 1012 0 6 -- Chart
1964 5 27 00 37.0 174.2 1014 0 6 -- Chart
1964 5 27 06 37.0 174.4 1014 0 6 -- Chart
Japan Meteorological Agency Best Track Data | Correction Date : 1989-06-01
< Typhoon 196324 1964 Season Typhoon 196402 >

Help